OCN26F ESSA-EDDH
Flight info
| Callsign | OCN26F |
|---|---|
| Flight time | N/A |
| Altitude | 38000 |
| Route | NOSLI N850 ABAMA DCT GIMRU T503 MICOS N850 BOGMU BOGMU3P |
| Aircraft | A320/M-SDE3FGHIRWY/LB1 |
Departure
| Time | N/A |
|---|---|
| Airport | Stockholm-Arlanda Airport (ESSA) |
Arrival
| Time | 2026-04-24 19:57 |
|---|---|
| Airport | Hamburg Helmut Schmidt Airport (EDDH) |
| Time | Latitude | Longitude | Altitude | Speed | Heading |
|---|---|---|---|---|---|
| 2026-04-24 18:54 | 58.53979 | 16.41205 | 31198 ft | 457 kts | 224° |
| 2026-04-24 18:55 | 58.49027 | 16.33513 | 31888 ft | 458 kts | 224° |
| 2026-04-24 18:55 | 58.46549 | 16.29688 | 32311 ft | 457 kts | 224° |
| 2026-04-24 18:55 | 58.44075 | 16.25872 | 32739 ft | 456 kts | 224° |
| 2026-04-24 18:56 | 58.41578 | 16.22022 | 33161 ft | 455 kts | 224° |
| 2026-04-24 18:56 | 58.39117 | 16.18231 | 33597 ft | 454 kts | 224° |
| 2026-04-24 18:56 | 58.36664 | 16.14465 | 33996 ft | 453 kts | 224° |
| 2026-04-24 18:56 | 58.34211 | 16.10709 | 34366 ft | 452 kts | 224° |
| 2026-04-24 18:57 | 58.31760 | 16.06959 | 34714 ft | 451 kts | 224° |
| 2026-04-24 18:57 | 58.29313 | 16.03221 | 35043 ft | 450 kts | 224° |
| 2026-04-24 18:57 | 58.26876 | 15.99504 | 35369 ft | 449 kts | 224° |
| 2026-04-24 18:57 | 58.24440 | 15.95794 | 35678 ft | 448 kts | 224° |
| 2026-04-24 18:58 | 58.22004 | 15.92091 | 35994 ft | 447 kts | 223° |
| 2026-04-24 18:58 | 58.19575 | 15.88411 | 36302 ft | 446 kts | 223° |
| 2026-04-24 18:58 | 58.17153 | 15.84752 | 36603 ft | 445 kts | 223° |
| 2026-04-24 18:58 | 58.14733 | 15.81097 | 36887 ft | 445 kts | 223° |
| 2026-04-24 18:59 | 58.13132 | 15.78683 | 37077 ft | 444 kts | 223° |
| 2026-04-24 18:59 | 58.10715 | 15.75044 | 37362 ft | 443 kts | 223° |
| 2026-04-24 18:59 | 58.08311 | 15.71427 | 37648 ft | 442 kts | 223° |
| 2026-04-24 18:59 | 58.05903 | 15.67810 | 37849 ft | 442 kts | 223° |
| 2026-04-24 19:00 | 58.03500 | 15.64209 | 37909 ft | 440 kts | 223° |
| 2026-04-24 19:00 | 57.98703 | 15.57049 | 37906 ft | 439 kts | 223° |
| 2026-04-24 19:01 | 57.93821 | 15.50109 | 37908 ft | 440 kts | 221° |
| 2026-04-24 19:01 | 57.88855 | 15.43323 | 37912 ft | 441 kts | 221° |
| 2026-04-24 19:02 | 57.83890 | 15.36557 | 37911 ft | 441 kts | 221° |
| 2026-04-24 19:02 | 57.78926 | 15.29745 | 37916 ft | 442 kts | 221° |
| 2026-04-24 19:03 | 57.73979 | 15.22929 | 37918 ft | 442 kts | 221° |
| 2026-04-24 19:03 | 57.69031 | 15.16126 | 37918 ft | 441 kts | 221° |
| 2026-04-24 19:04 | 57.64080 | 15.09347 | 37914 ft | 441 kts | 221° |
| 2026-04-24 19:04 | 57.59124 | 15.02588 | 37916 ft | 441 kts | 221° |
| 2026-04-24 19:05 | 57.54165 | 14.95850 | 37922 ft | 441 kts | 221° |
| 2026-04-24 19:05 | 57.49201 | 14.89135 | 37927 ft | 441 kts | 221° |
| 2026-04-24 19:06 | 57.44235 | 14.82460 | 37928 ft | 440 kts | 221° |
| 2026-04-24 19:06 | 57.39270 | 14.75782 | 37921 ft | 440 kts | 221° |
| 2026-04-24 19:07 | 57.34309 | 14.69117 | 37918 ft | 440 kts | 221° |
| 2026-04-24 19:07 | 57.29342 | 14.62478 | 37917 ft | 440 kts | 221° |
| 2026-04-24 19:08 | 57.24371 | 14.55863 | 37917 ft | 440 kts | 221° |
| 2026-04-24 19:08 | 57.19427 | 14.49308 | 37917 ft | 440 kts | 221° |
| 2026-04-24 19:09 | 57.14452 | 14.42737 | 37935 ft | 440 kts | 221° |
| 2026-04-24 19:09 | 57.09446 | 14.36146 | 37927 ft | 439 kts | 221° |
| 2026-04-24 19:10 | 57.04472 | 14.29616 | 37931 ft | 439 kts | 221° |
| 2026-04-24 19:10 | 56.99497 | 14.23110 | 37929 ft | 438 kts | 221° |
| 2026-04-24 19:11 | 56.94723 | 14.16895 | 37934 ft | 438 kts | 221° |
| 2026-04-24 19:11 | 56.89793 | 14.10485 | 37932 ft | 437 kts | 221° |
| 2026-04-24 19:12 | 56.84806 | 14.04010 | 37942 ft | 437 kts | 221° |
| 2026-04-24 19:12 | 56.79855 | 13.97605 | 37944 ft | 436 kts | 221° |
| 2026-04-24 19:13 | 56.75734 | 13.92305 | 37951 ft | 436 kts | 221° |
| 2026-04-24 19:13 | 56.69939 | 13.84879 | 37950 ft | 435 kts | 221° |
| 2026-04-24 19:14 | 56.65016 | 13.78589 | 37955 ft | 435 kts | 221° |
| 2026-04-24 19:14 | 56.60064 | 13.72293 | 37953 ft | 434 kts | 221° |
| 2026-04-24 19:15 | 56.55119 | 13.66015 | 37956 ft | 433 kts | 221° |
| 2026-04-24 19:15 | 56.50179 | 13.59745 | 37957 ft | 433 kts | 221° |
| 2026-04-24 19:16 | 56.42731 | 13.50350 | 37966 ft | 433 kts | 221° |
| 2026-04-24 19:16 | 56.37780 | 13.44142 | 37978 ft | 433 kts | 221° |
| 2026-04-24 19:17 | 56.32869 | 13.37992 | 37977 ft | 432 kts | 221° |
| 2026-04-24 19:17 | 56.27933 | 13.31824 | 37979 ft | 432 kts | 221° |
| 2026-04-24 19:18 | 56.23155 | 13.25880 | 37979 ft | 432 kts | 221° |
| 2026-04-24 19:18 | 56.18210 | 13.19750 | 37980 ft | 431 kts | 221° |
| 2026-04-24 19:19 | 56.13274 | 13.13647 | 37980 ft | 431 kts | 220° |
| 2026-04-24 19:19 | 56.08342 | 13.07563 | 37981 ft | 430 kts | 220° |
| 2026-04-24 19:20 | 56.03405 | 13.01500 | 37975 ft | 430 kts | 220° |
| 2026-04-24 19:20 | 55.98468 | 12.95463 | 37975 ft | 429 kts | 220° |
| 2026-04-24 19:21 | 55.93541 | 12.89451 | 37976 ft | 429 kts | 220° |
| 2026-04-24 19:21 | 55.88613 | 12.83453 | 37972 ft | 428 kts | 220° |
| 2026-04-24 19:22 | 55.83654 | 12.77449 | 37978 ft | 428 kts | 220° |
| 2026-04-24 19:22 | 55.78726 | 12.71489 | 37981 ft | 428 kts | 220° |
| 2026-04-24 19:23 | 55.73796 | 12.65540 | 37984 ft | 429 kts | 220° |
| 2026-04-24 19:23 | 55.68854 | 12.59601 | 37986 ft | 429 kts | 219° |
| 2026-04-24 19:24 | 55.63905 | 12.53680 | 37984 ft | 429 kts | 219° |
| 2026-04-24 19:24 | 55.58953 | 12.47773 | 37983 ft | 429 kts | 219° |
| 2026-04-24 19:25 | 55.54132 | 12.42026 | 37982 ft | 429 kts | 219° |
| 2026-04-24 19:25 | 55.49185 | 12.36159 | 37990 ft | 429 kts | 219° |
| 2026-04-24 19:26 | 55.44231 | 12.30291 | 37625 ft | 429 kts | 219° |
| 2026-04-24 19:26 | 55.41751 | 12.27364 | 37293 ft | 428 kts | 219° |
| 2026-04-24 19:26 | 55.39275 | 12.24448 | 36963 ft | 428 kts | 219° |
| 2026-04-24 19:27 | 55.36797 | 12.21532 | 36675 ft | 428 kts | 219° |
| 2026-04-24 19:27 | 55.34326 | 12.18625 | 36404 ft | 428 kts | 219° |
| 2026-04-24 19:27 | 55.31850 | 12.15718 | 36151 ft | 427 kts | 219° |
| 2026-04-24 19:27 | 55.29382 | 12.12826 | 35906 ft | 426 kts | 219° |
| 2026-04-24 19:28 | 55.26921 | 12.09944 | 35645 ft | 424 kts | 219° |
| 2026-04-24 19:28 | 55.24479 | 12.07088 | 35394 ft | 422 kts | 219° |
| 2026-04-24 19:28 | 55.22038 | 12.04245 | 35142 ft | 419 kts | 219° |
| 2026-04-24 19:28 | 55.19618 | 12.01434 | 34900 ft | 417 kts | 219° |
| 2026-04-24 19:29 | 55.14807 | 11.95842 | 34410 ft | 413 kts | 219° |
| 2026-04-24 19:29 | 55.12418 | 11.93066 | 34169 ft | 411 kts | 219° |
| 2026-04-24 19:29 | 55.10039 | 11.90311 | 33916 ft | 409 kts | 219° |
| 2026-04-24 19:30 | 55.07668 | 11.87573 | 33636 ft | 407 kts | 219° |
| 2026-04-24 19:30 | 55.05310 | 11.84856 | 33366 ft | 405 kts | 219° |
| 2026-04-24 19:30 | 55.02963 | 11.82154 | 33088 ft | 404 kts | 219° |
| 2026-04-24 19:30 | 55.00627 | 11.79466 | 32808 ft | 402 kts | 219° |
| 2026-04-24 19:31 | 54.98297 | 11.76785 | 32565 ft | 400 kts | 219° |
| 2026-04-24 19:31 | 54.95980 | 11.74125 | 32298 ft | 398 kts | 219° |
| 2026-04-24 19:31 | 54.93673 | 11.71486 | 32028 ft | 397 kts | 218° |
| 2026-04-24 19:31 | 54.91372 | 11.68854 | 31773 ft | 395 kts | 218° |
| 2026-04-24 19:32 | 54.89082 | 11.66232 | 31514 ft | 393 kts | 218° |
| 2026-04-24 19:32 | 54.86803 | 11.63624 | 31257 ft | 392 kts | 219° |
| 2026-04-24 19:32 | 54.84531 | 11.61030 | 30997 ft | 390 kts | 218° |
| 2026-04-24 19:32 | 54.82397 | 11.58601 | 30782 ft | 389 kts | 218° |
| 2026-04-24 19:33 | 54.80138 | 11.56032 | 30528 ft | 388 kts | 218° |
| 2026-04-24 19:33 | 54.77885 | 11.53475 | 30280 ft | 386 kts | 218° |
| 2026-04-24 19:33 | 54.75640 | 11.50936 | 30028 ft | 383 kts | 218° |
| 2026-04-24 19:33 | 54.73428 | 11.48439 | 29605 ft | 377 kts | 219° |
| 2026-04-24 19:34 | 54.71244 | 11.45973 | 29181 ft | 372 kts | 219° |
| 2026-04-24 19:34 | 54.69093 | 11.43546 | 28768 ft | 367 kts | 219° |
| 2026-04-24 19:34 | 54.66949 | 11.41128 | 28042 ft | 371 kts | 218° |
| 2026-04-24 19:34 | 54.64792 | 11.38692 | 27468 ft | 371 kts | 218° |
| 2026-04-24 19:35 | 54.62600 | 11.36219 | 26293 ft | 386 kts | 218° |
| 2026-04-24 19:35 | 54.60341 | 11.33671 | 25673 ft | 387 kts | 218° |
| 2026-04-24 19:35 | 54.58117 | 11.31187 | 25320 ft | 371 kts | 218° |
| 2026-04-24 19:35 | 54.55981 | 11.28814 | 24712 ft | 362 kts | 218° |
| 2026-04-24 19:36 | 54.53885 | 11.26476 | 24012 ft | 357 kts | 218° |
| 2026-04-24 19:36 | 54.52511 | 11.24941 | 23516 ft | 354 kts | 218° |
| 2026-04-24 19:36 | 54.50456 | 11.22639 | 22710 ft | 351 kts | 218° |
| 2026-04-24 19:36 | 54.47732 | 11.19584 | 21223 ft | 357 kts | 218° |
| 2026-04-24 19:37 | 54.46331 | 11.17979 | 20311 ft | 363 kts | 222° |
| 2026-04-24 19:37 | 54.44548 | 11.15016 | 19545 ft | 351 kts | 233° |
| 2026-04-24 19:37 | 54.42910 | 11.11958 | 18820 ft | 346 kts | 233° |
| 2026-04-24 19:37 | 54.41287 | 11.08944 | 18037 ft | 341 kts | 233° |
| 2026-04-24 19:38 | 54.39687 | 11.05966 | 17190 ft | 337 kts | 233° |
| 2026-04-24 19:38 | 54.38104 | 11.03017 | 16345 ft | 334 kts | 233° |
| 2026-04-24 19:38 | 54.36532 | 11.00078 | 15448 ft | 335 kts | 233° |
| 2026-04-24 19:38 | 54.34964 | 10.97138 | 14636 ft | 333 kts | 233° |
| 2026-04-24 19:39 | 54.33405 | 10.94218 | 13863 ft | 330 kts | 233° |
| 2026-04-24 19:39 | 54.31861 | 10.91335 | 13026 ft | 327 kts | 233° |
| 2026-04-24 19:39 | 54.30327 | 10.88482 | 12198 ft | 324 kts | 233° |
| 2026-04-24 19:39 | 54.28803 | 10.85649 | 11437 ft | 323 kts | 233° |
| 2026-04-24 19:40 | 54.27283 | 10.82821 | 11171 ft | 322 kts | 233° |
| 2026-04-24 19:40 | 54.25775 | 10.80021 | 11081 ft | 319 kts | 233° |
| 2026-04-24 19:40 | 54.24266 | 10.77223 | 11091 ft | 320 kts | 233° |
| 2026-04-24 19:40 | 54.22760 | 10.74437 | 11095 ft | 319 kts | 233° |
| 2026-04-24 19:41 | 54.21253 | 10.71650 | 11098 ft | 319 kts | 233° |
| 2026-04-24 19:41 | 54.19750 | 10.68872 | 11098 ft | 319 kts | 233° |
| 2026-04-24 19:41 | 54.18247 | 10.66091 | 11104 ft | 319 kts | 233° |
| 2026-04-24 19:41 | 54.16740 | 10.63307 | 11106 ft | 319 kts | 233° |
| 2026-04-24 19:42 | 54.15233 | 10.60531 | 11111 ft | 319 kts | 233° |
| 2026-04-24 19:42 | 54.13728 | 10.57764 | 11107 ft | 319 kts | 233° |
| 2026-04-24 19:42 | 54.12215 | 10.54986 | 11110 ft | 319 kts | 233° |
| 2026-04-24 19:42 | 54.10704 | 10.52220 | 11112 ft | 319 kts | 233° |
| 2026-04-24 19:43 | 54.09193 | 10.49452 | 11109 ft | 319 kts | 233° |
| 2026-04-24 19:43 | 54.07683 | 10.46687 | 11117 ft | 319 kts | 233° |
| 2026-04-24 19:43 | 54.06174 | 10.43922 | 11116 ft | 319 kts | 233° |
| 2026-04-24 19:43 | 54.04664 | 10.41160 | 11114 ft | 319 kts | 232° |
| 2026-04-24 19:44 | 54.03155 | 10.38403 | 11120 ft | 318 kts | 233° |
| 2026-04-24 19:44 | 54.01960 | 10.35351 | 11048 ft | 303 kts | 251° |
| 2026-04-24 19:44 | 54.01231 | 10.32350 | 10935 ft | 290 kts | 254° |
| 2026-04-24 19:44 | 54.00504 | 10.29207 | 10667 ft | 281 kts | 255° |
| 2026-04-24 19:45 | 53.99790 | 10.26118 | 10237 ft | 281 kts | 255° |
| 2026-04-24 19:45 | 53.99075 | 10.23038 | 9870 ft | 279 kts | 254° |
| 2026-04-24 19:45 | 53.98364 | 10.19975 | 9484 ft | 278 kts | 254° |
| 2026-04-24 19:45 | 53.97661 | 10.16930 | 9099 ft | 276 kts | 254° |
| 2026-04-24 19:46 | 53.96965 | 10.13894 | 8696 ft | 275 kts | 254° |
| 2026-04-24 19:46 | 53.96278 | 10.10874 | 8311 ft | 273 kts | 254° |
| 2026-04-24 19:46 | 53.95595 | 10.07867 | 7927 ft | 272 kts | 254° |
| 2026-04-24 19:46 | 53.94935 | 10.04973 | 7777 ft | 253 kts | 254° |
| 2026-04-24 19:47 | 53.94316 | 10.02306 | 7638 ft | 232 kts | 254° |
| 2026-04-24 19:47 | 53.93734 | 9.99851 | 7438 ft | 219 kts | 254° |
| 2026-04-24 19:47 | 53.93172 | 9.97496 | 7163 ft | 211 kts | 254° |
| 2026-04-24 19:47 | 53.92615 | 9.95163 | 7140 ft | 215 kts | 254° |
| 2026-04-24 19:48 | 53.91909 | 9.92905 | 7145 ft | 223 kts | 234° |
| 2026-04-24 19:48 | 53.90586 | 9.91446 | 7022 ft | 235 kts | 200° |
| 2026-04-24 19:48 | 53.87501 | 9.92787 | 6428 ft | 242 kts | 130° |
| 2026-04-24 19:49 | 53.86361 | 9.97932 | 5785 ft | 235 kts | 95° |
| 2026-04-24 19:49 | 53.85825 | 10.03355 | 5196 ft | 233 kts | 94° |
| 2026-04-24 19:50 | 53.85047 | 10.11412 | 4366 ft | 229 kts | 94° |
| 2026-04-24 19:50 | 53.84785 | 10.14073 | 4084 ft | 229 kts | 94° |
| 2026-04-24 19:51 | 53.84245 | 10.19358 | 3980 ft | 228 kts | 94° |
| 2026-04-24 19:51 | 53.83968 | 10.21997 | 3988 ft | 228 kts | 95° |
| 2026-04-24 19:52 | 53.83326 | 10.27270 | 3976 ft | 233 kts | 112° |
| 2026-04-24 19:52 | 53.82311 | 10.29396 | 3834 ft | 236 kts | 143° |
| 2026-04-24 19:52 | 53.80829 | 10.30503 | 3574 ft | 233 kts | 173° |
| 2026-04-24 19:52 | 53.79246 | 10.30356 | 3322 ft | 226 kts | 203° |
| 2026-04-24 19:53 | 53.77911 | 10.29075 | 2985 ft | 219 kts | 232° |
| 2026-04-24 19:53 | 53.76922 | 10.27113 | 2982 ft | 223 kts | 237° |
| 2026-04-24 19:53 | 53.74957 | 10.23101 | 2984 ft | 216 kts | 237° |
| 2026-04-24 19:54 | 53.74002 | 10.21149 | 2982 ft | 215 kts | 237° |
| 2026-04-24 19:54 | 53.73051 | 10.19202 | 2956 ft | 216 kts | 237° |
| 2026-04-24 19:54 | 53.72075 | 10.17203 | 2742 ft | 223 kts | 237° |
| 2026-04-24 19:54 | 53.71088 | 10.15192 | 2453 ft | 223 kts | 236° |
| 2026-04-24 19:55 | 53.70434 | 10.13859 | 2248 ft | 221 kts | 236° |
| 2026-04-24 19:55 | 53.69176 | 10.11306 | 1857 ft | 198 kts | 236° |
| 2026-04-24 19:55 | 53.68339 | 10.09607 | 1605 ft | 179 kts | 237° |
| 2026-04-24 19:55 | 53.67538 | 10.07970 | 1348 ft | 176 kts | 237° |
| 2026-04-24 19:56 | 53.66801 | 10.06478 | 1103 ft | 156 kts | 237° |
| 2026-04-24 19:56 | 53.66145 | 10.05148 | 886 ft | 141 kts | 237° |
| 2026-04-24 19:56 | 53.65498 | 10.03824 | 674 ft | 143 kts | 236° |
| 2026-04-24 19:56 | 53.64896 | 10.02605 | 481 ft | 129 kts | 234° |
| 2026-04-24 19:57 | 53.64332 | 10.01459 | 319 ft | 125 kts | 235° |
| 2026-04-24 19:57 | 53.63783 | 10.00346 | 154 ft | 123 kts | 235° |
| 2026-04-24 19:57 | 53.63246 | 9.99255 | 50 ft | 112 kts | 233° |
| 2026-04-24 19:57 | 53.62900 | 9.98546 | 51 ft | 30 kts | 229° |
| 2026-04-24 19:58 | 53.62804 | 9.98369 | 53 ft | 19 kts | 217° |
| 2026-04-24 19:58 | 53.62708 | 9.98410 | 52 ft | 11 kts | 138° |
| 2026-04-24 19:58 | 53.62670 | 9.98510 | 51 ft | 10 kts | 84° |
| 2026-04-24 19:58 | 53.62709 | 9.98597 | 50 ft | 9 kts | 48° |
| 2026-04-24 19:59 | 53.62749 | 9.98676 | 51 ft | 9 kts | 49° |
| 2026-04-24 19:59 | 53.62788 | 9.98752 | 51 ft | 8 kts | 50° |
| 2026-04-24 19:59 | 53.62823 | 9.98825 | 51 ft | 8 kts | 50° |
| 2026-04-24 19:59 | 53.62856 | 9.98892 | 51 ft | 7 kts | 51° |
| 2026-04-24 20:00 | 53.62904 | 9.98987 | 51 ft | 18 kts | 50° |
| 2026-04-24 20:00 | 53.62983 | 9.99146 | 51 ft | 17 kts | 51° |
| 2026-04-24 20:00 | 53.63053 | 9.99301 | 51 ft | 16 kts | 52° |
| 2026-04-24 20:00 | 53.63080 | 9.99359 | 51 ft | 0 kts | 54° |
| 2026-04-24 20:01 | 53.63087 | 9.99376 | 51 ft | 10 kts | 54° |
| 2026-04-24 20:01 | 53.63167 | 9.99560 | 51 ft | 22 kts | 52° |
| 2026-04-24 20:01 | 53.63194 | 9.99613 | 51 ft | 4 kts | 50° |
| 2026-04-24 20:02 | 53.63209 | 9.99644 | 49 ft | 0 kts | 50° |
| 2026-04-24 20:02 | 53.63221 | 9.99668 | 51 ft | 13 kts | 51° |
| 2026-04-24 20:02 | 53.63305 | 9.99810 | 51 ft | 17 kts | 50° |
| 2026-04-24 20:02 | 53.63378 | 9.99962 | 51 ft | 16 kts | 51° |
| 2026-04-24 20:03 | 53.63432 | 10.00115 | 51 ft | 15 kts | 91° |
| 2026-04-24 20:03 | 53.63361 | 10.00199 | 51 ft | 13 kts | 174° |
| 2026-04-24 20:03 | 53.63272 | 10.00207 | 51 ft | 13 kts | 177° |
| 2026-04-24 20:03 | 53.63183 | 10.00219 | 51 ft | 6 kts | 174° |
| 2026-04-24 20:04 | 53.63137 | 10.00227 | 48 ft | 9 kts | 174° |
| 2026-04-24 20:04 | 53.63074 | 10.00271 | 51 ft | 10 kts | 97° |
| 2026-04-24 20:04 | 53.63073 | 10.00378 | 51 ft | 6 kts | 93° |
| 2026-04-24 20:04 | 53.63073 | 10.00387 | 51 ft | 0 kts | 93° |